Site contains unofficial IBTrACS data. Visit the IBTrACS Website to access archived data.

1860 NOT_NAMED (1860122S07087)


IBTrACS version v04r00. Visit IBTrACS website for data access.
Please direct all questions to the IBTrACS Q and A forum

Storm track - Intensity - Wind Radii - Intensity Data - Source Data - All data

Summary Information

Storm ID 1860122S07087
Start May 1 06Z
End May 7 06Z
ATCF IDs
Track status Best track data.

Storm track plot

Map of storm track

Intensity plots

No Intensity information for this storm


Radial wind information

No radial wind information for this storm


Position and Intensity Table

BASIN ISO_TIME_________ NATURE LAT LON
degrees north degrees east
SI 1860-05-01 06:00:00 NR -7.20 87.20
SI 09:00:00 NR -7.24 87.07
SI 12:00:00 NR -7.28 86.93
SI 15:00:00 NR -7.33 86.77
SI 18:00:00 NR -7.37 86.60
SI 21:00:00 NR -7.42 86.40
SI 1860-05-02 00:00:00 NR -7.48 86.18
SI 03:00:00 NR -7.53 85.91
SI 06:00:00 NR -7.60 85.60
SI 09:00:00 NR -7.67 85.24
SI 12:00:00 NR -7.75 84.84
SI 15:00:00 NR -7.84 84.40
SI 18:00:00 NR -7.93 83.92
SI 21:00:00 NR -8.04 83.42
SI 1860-05-03 00:00:00 NR -8.15 82.90
SI 03:00:00 NR -8.27 82.35
SI 06:00:00 NR -8.40 81.80
SI 09:00:00 NR -8.53 81.26
SI 12:00:00 NR -8.67 80.70
SI 15:00:00 NR -8.82 80.13
SI 18:00:00 NR -8.97 79.54
SI 21:00:00 NR -9.14 78.96
SI 1860-05-04 00:00:00 NR -9.32 78.37
SI 03:00:00 NR -9.50 77.78
SI 06:00:00 NR -9.70 77.20
SI 09:00:00 NR -9.90 76.62
SI 12:00:00 NR -10.10 76.03
SI 15:00:00 NR -10.32 75.46
SI 18:00:00 NR -10.54 74.89
SI 21:00:00 NR -10.77 74.33
SI 1860-05-05 00:00:00 NR -11.01 73.80
SI 03:00:00 NR -11.25 73.29
SI 06:00:00 NR -11.50 72.80
SI 09:00:00 NR -11.76 72.32
SI 12:00:00 NR -12.02 71.86
SI 15:00:00 NR -12.29 71.43
SI 18:00:00 NR -12.56 71.03
SI 21:00:00 NR -12.83 70.65
SI 1860-05-06 00:00:00 NR -13.09 70.30
SI 03:00:00 NR -13.35 69.98
SI 06:00:00 NR -13.60 69.70
SI 09:00:00 NR -13.84 69.45
SI 12:00:00 NR -14.07 69.23
SI 15:00:00 NR -14.29 69.03
SI 18:00:00 NR -14.50 68.86
SI 21:00:00 NR -14.70 68.71
SI 1860-05-07 00:00:00 NR -14.90 68.56
SI 03:00:00 NR -15.10 68.43
SI 06:00:00 NR -15.30 68.30

Source Information

Agency Information
USA
TOKYO
CMA
HKO
NEWDELHI
REUNION WMO-Best-Tracks.txt:Line=307:xxxx860046
BOM
NADI
WELLINGTON
DS824
TD9636
TD9635
NEUMANN
MLC

All available IBTrACS Data

SEASON BASIN SUBBASIN ISO_TIME_________ NATURE LAT LON WMO AGENCY DIST2LAND LANDFALL IFLAG USA SSHS REUNION LAT REUNION LON REUNION TYPE REUNION TNUM STORM SPEED STORM DIR
Year degrees north degrees east km km 1 degrees north degrees east 1 kts degrees
1860 SI MM 1860-05-01 06:00:00 NR -7.20 87.20 1432 1432 _____O________ -1 -7.20 87.20 99 9.90 3 253
1860 SI MM 09:00:00 NR -7.24 87.07 1442 1442 _____P________ -1 -7.24 87.07 99 3 253
1860 SI MM 12:00:00 NR -7.28 86.93 1467 1467 _____P________ -1 -7.28 86.93 99 3 254
1860 SI MM 15:00:00 NR -7.33 86.77 1476 1476 _____P________ -1 -7.33 86.77 99 3 254
1860 SI MM 18:00:00 NR -7.37 86.60 1501 1501 _____P________ -1 -7.37 86.60 99 4 255
1860 SI MM 21:00:00 NR -7.42 86.40 1521 1521 _____P________ -1 -7.42 86.40 99 4 256
1860 SI MM 1860-05-02 00:00:00 NR -7.48 86.18 1546 1546 _____P________ -1 -7.48 86.18 99 5 257
1860 SI MM 03:00:00 NR -7.53 85.91 1575 1575 _____P________ -1 -7.53 85.91 99 6 258
1860 SI MM 06:00:00 NR -7.60 85.60 1609 1603 _____O________ -1 -7.60 85.60 99 9.90 7 258
1860 SI MM 09:00:00 NR -7.67 85.24 1607 1597 _____P________ -1 -7.67 85.24 99 8 259
1860 SI MM 12:00:00 NR -7.75 84.84 1604 1592 _____P________ -1 -7.75 84.84 99 9 259
1860 SI MM 15:00:00 NR -7.84 84.40 1592 1589 _____P________ -1 -7.84 84.40 99 9 259
1860 SI MM 18:00:00 NR -7.93 83.92 1589 1586 _____P________ -1 -7.93 83.92 99 10 258
1860 SI MM 21:00:00 NR -8.04 83.42 1588 1588 _____P________ -1 -8.04 83.42 99 10 258
1860 SI MM 1860-05-03 00:00:00 NR -8.15 82.90 1589 1589 _____P________ -1 -8.15 82.90 99 11 258
1860 SI MM 03:00:00 NR -8.27 82.35 1603 1598 _____P________ -1 -8.27 82.35 99 11 257
1860 SI MM 06:00:00 NR -8.40 81.80 1607 1606 _____O________ -1 -8.40 81.80 99 9.90 11 256
1860 SI MM 09:00:00 NR -8.53 81.26 1615 1614 _____P________ -1 -8.53 81.26 99 11 256
1860 SI MM 12:00:00 NR -8.67 80.70 1636 1635 _____P________ -1 -8.67 80.70 99 12 256
1860 SI MM 15:00:00 NR -8.82 80.13 1648 1648 _____P________ -1 -8.82 80.13 99 12 255
1860 SI MM 18:00:00 NR -8.97 79.54 1674 1674 _____P________ -1 -8.97 79.54 99 12 254
1860 SI MM 21:00:00 NR -9.14 78.96 1690 1690 _____P________ -1 -9.14 78.96 99 12 254
1860 SI MM 1860-05-04 00:00:00 NR -9.32 78.37 1720 1720 _____P________ -1 -9.32 78.37 99 12 253
1860 SI MM 03:00:00 NR -9.50 77.78 1753 1753 _____P________ -1 -9.50 77.78 99 12 252
1860 SI MM 06:00:00 NR -9.70 77.20 reunion 1788 1788 _____O________ -1 -9.70 77.20 99 9.90 12 251
1860 SI MM 09:00:00 NR -9.90 76.62 1825 1825 _____P________ -1 -9.90 76.62 99 12 251
1860 SI MM 12:00:00 NR -10.10 76.03 1863 1863 _____P________ -1 -10.10 76.03 99 12 250
1860 SI MM 15:00:00 NR -10.32 75.46 1901 1901 _____P________ -1 -10.32 75.46 99 12 249
1860 SI MM 18:00:00 NR -10.54 74.89 1943 1943 _____P________ -1 -10.54 74.89 99 12 248
1860 SI MM 21:00:00 NR -10.77 74.33 1996 1996 _____P________ -1 -10.77 74.33 99 12 246
1860 SI MM 1860-05-05 00:00:00 NR -11.01 73.80 2001 1943 _____P________ -1 -11.01 73.80 99 11 245
1860 SI MM 03:00:00 NR -11.25 73.29 1937 1879 _____P________ -1 -11.25 73.29 99 11 243
1860 SI MM 06:00:00 NR -11.50 72.80 reunion 1879 1821 _____O________ -1 -11.50 72.80 99 9.90 11 242
1860 SI MM 09:00:00 NR -11.76 72.32 1815 1766 _____P________ -1 -11.76 72.32 99 11 241
1860 SI MM 12:00:00 NR -12.02 71.86 1766 1711 _____P________ -1 -12.02 71.86 99 10 239
1860 SI MM 15:00:00 NR -12.29 71.43 1702 1653 _____P________ -1 -12.29 71.43 99 10 237
1860 SI MM 18:00:00 NR -12.56 71.03 1647 1608 _____P________ -1 -12.56 71.03 99 9 235
1860 SI MM 21:00:00 NR -12.83 70.65 1599 1553 _____P________ -1 -12.83 70.65 99 9 233
1860 SI MM 1860-05-06 00:00:00 NR -13.09 70.30 1553 1514 _____P________ -1 -13.09 70.30 99 8 231
1860 SI MM 03:00:00 NR -13.35 69.98 1508 1469 _____P________ -1 -13.35 69.98 99 8 229
1860 SI MM 06:00:00 NR -13.60 69.70 reunion 1469 1438 _____O________ -1 -13.60 69.70 99 9.90 7 227
1860 SI MM 09:00:00 NR -13.84 69.45 1429 1393 _____P________ -1 -13.84 69.45 99 7 224
1860 SI MM 12:00:00 NR -14.07 69.23 1393 1364 _____P________ -1 -14.07 69.23 99 6 222
1860 SI MM 15:00:00 NR -14.29 69.03 1364 1343 _____P________ -1 -14.29 69.03 99 6 220
1860 SI MM 18:00:00 NR -14.50 68.86 1343 1313 _____P________ -1 -14.50 68.86 99 5 217
1860 SI MM 21:00:00 NR -14.70 68.71 1313 1293 _____P________ -1 -14.70 68.71 99 5 215
1860 SI MM 1860-05-07 00:00:00 NR -14.90 68.56 1293 1264 _____P________ -1 -14.90 68.56 99 5 214
1860 SI MM 03:00:00 NR -15.10 68.43 1264 1244 _____P________ -1 -15.10 68.43 99 5 213
1860 SI MM 06:00:00 NR -15.30 68.30 reunion 1244 _____O________ -1 -15.30 68.30 99 9.90 5 213